Time;durP1;ratioP1;P1;durP2;ratioP2;P2;SDS_P1;SDS_P2;PMS_P1;PMS_P2;Temp;Humidity;BMP_temperature;BMP_pressure;BME280_temperature;BME280_humidity;BME280_pressure;Samples;Min_cycle;Max_cycle;Signal;HPM_P1;HPM_P2
2024/01/28 00:00:12;;;;;;;33.03;16.15;;;;;;;-146.25;100.00;52656.13;2088194;28;32550;-65
2024/01/28 00:01:14;;;;;;;30.27;15.65;;;;;;;-146.25;100.00;52625.72;2097366;28;20865;-65
2024/01/28 00:02:17;;;;;;;36.20;16.75;;;;;;;-146.25;100.00;52619.63;2096624;28;34573;-65
2024/01/28 00:03:21;;;;;;;35.08;15.05;;;;;;;-146.25;100.00;52617.59;2097178;28;29193;-64
2024/01/28 00:04:23;;;;;;;37.85;15.80;;;;;;;-146.25;100.00;52599.34;2096646;28;30906;-65
2024/01/28 00:05:24;;;;;;;37.80;16.13;;;;;;;-146.25;100.00;52623.69;2097249;28;34435;-65
2024/01/28 00:06:26;;;;;;;31.65;15.38;;;;;;;-146.25;100.00;52599.34;2096684;28;34842;-65
2024/01/28 00:07:28;;;;;;;33.20;16.20;;;;;;;-146.25;100.00;52629.75;2097372;28;20080;-64
2024/01/28 00:08:32;;;;;;;31.20;15.13;;;;;;;-146.25;100.00;52652.06;2096571;28;34803;-65
2024/01/28 00:09:34;;;;;;;38.53;15.60;;;;;;;-146.25;100.00;52595.28;2096903;28;35827;-65
2024/01/28 00:10:36;;;;;;;38.55;16.55;;;;;;;-146.25;100.00;52623.69;2099383;28;33374;-64
2024/01/28 00:11:42;;;;;;;35.55;15.85;;;;;;;-146.25;100.00;52615.56;2104709;28;37962;-65
2024/01/28 00:12:44;;;;;;;32.83;14.82;;;;;;;-146.25;100.00;52627.75;2105842;28;20163;-66
2024/01/28 00:13:48;;;;;;;35.38;15.55;;;;;;;-146.25;100.00;52625.72;2105253;28;27812;-64
2024/01/28 00:14:50;;;;;;;35.38;16.23;;;;;;;-146.25;100.00;52605.44;2104999;28;33007;-63
2024/01/28 00:15:52;;;;;;;34.13;15.73;;;;;;;-146.25;100.00;52609.50;2104895;28;31079;-63
2024/01/28 00:16:54;;;;;;;34.88;15.05;;;;;;;-146.25;100.00;52607.47;2105113;28;33759;-64
2024/01/28 00:17:56;;;;;;;35.90;15.18;;;;;;;-146.25;100.00;52611.50;2105688;28;20165;-65
2024/01/28 00:18:58;;;;;;;40.28;16.58;;;;;;;-146.25;100.00;52611.50;2095652;28;37249;-65
2024/01/28 00:20:00;;;;;;;37.33;16.13;;;;;;;-146.25;100.00;52648.00;2096384;28;35619;-63
2024/01/28 00:21:04;;;;;;;35.40;14.75;;;;;;;-146.25;100.00;52613.53;2104952;28;27096;-65
2024/01/28 00:22:06;;;;;;;32.58;14.88;;;;;;;-146.25;100.00;52641.94;2105041;28;35069;-65
2024/01/28 00:23:08;;;;;;;34.10;14.80;;;;;;;-146.25;100.00;52656.13;2105491;28;20041;-64
2024/01/28 00:24:09;;;;;;;37.05;14.95;;;;;;;-146.25;100.00;52619.63;2105140;28;35840;-66
2024/01/28 00:25:11;;;;;;;29.33;13.70;;;;;;;-146.25;100.00;52619.63;2104961;28;33921;-63
2024/01/28 00:26:13;;;;;;;29.88;14.32;;;;;;;-146.25;100.00;52627.75;2105816;28;20043;-63
2024/01/28 00:27:17;;;;;;;33.53;15.18;;;;;;;-146.25;100.00;52595.28;2104978;28;36345;-63
2024/01/28 00:28:19;;;;;;;34.67;14.93;;;;;;;-146.25;100.00;52593.25;2096982;28;20049;-63
2024/01/28 00:29:29;;;;;;;29.25;13.50;;;;;;;-146.25;100.00;52629.75;2096626;28;20100;-63
2024/01/28 00:30:32;;;;;;;32.95;14.55;;;;;;;-146.25;100.00;52601.38;2105104;28;30292;-63
2024/01/28 00:31:34;;;;;;;30.10;13.68;;;;;;;-146.25;100.00;52633.81;2105184;28;31614;-63
2024/01/28 00:32:36;;;;;;;27.83;13.80;;;;;;;-146.25;100.00;52619.63;2104995;28;34290;-64
2024/01/28 00:33:40;;;;;;;32.03;14.13;;;;;;;-146.25;100.00;52603.41;2104784;28;33410;-63
2024/01/28 00:34:45;;;;;;;28.70;14.07;;;;;;;-146.25;100.00;52656.13;2105233;28;20837;-63
2024/01/28 00:35:50;;;;;;;29.65;13.70;;;;;;;-146.25;100.00;52617.59;2105724;28;20679;-63
2024/01/28 00:36:53;;;;;;;31.20;14.68;;;;;;;-146.25;100.00;52603.41;2104823;28;33821;-63
2024/01/28 00:37:59;;;;;;;32.22;14.32;;;;;;;-146.25;100.00;52617.59;2106249;28;20052;-63
2024/01/28 00:39:03;;;;;;;41.22;14.05;;;;;;;-146.25;100.00;52575.00;2105083;28;37652;-63
2024/01/28 00:40:06;;;;;;;31.45;13.73;;;;;;;-146.25;100.00;52587.19;2105074;28;35265;-63
2024/01/28 00:41:07;;;;;;;35.03;14.85;;;;;;;-146.25;100.00;52639.91;2104716;28;33681;-63
2024/01/28 00:42:09;;;;;;;29.92;14.85;;;;;;;-146.25;100.00;52635.84;2105046;28;38410;-64
2024/01/28 00:43:11;;;;;;;35.03;14.20;;;;;;;-146.25;100.00;52609.50;2104957;28;34668;-63
2024/01/28 00:44:13;;;;;;;25.73;13.98;;;;;;;-146.25;100.00;52643.97;2104541;28;36611;-63
2024/01/28 00:45:15;;;;;;;33.00;14.50;;;;;;;-146.25;100.00;52627.75;2104917;28;33755;-63
2024/01/28 00:46:17;;;;;;;33.80;13.85;;;;;;;-146.25;100.00;52603.41;2105159;28;20040;-63
2024/01/28 00:47:21;;;;;;;32.30;13.63;;;;;;;-146.25;100.00;52623.69;2104656;28;35038;-64
2024/01/28 00:48:26;;;;;;;29.00;13.63;;;;;;;-146.25;100.00;52668.28;2105213;28;20036;-63
2024/01/28 00:49:29;;;;;;;27.13;12.52;;;;;;;-146.25;100.00;52615.56;2104561;28;34535;-63
2024/01/28 00:50:31;;;;;;;29.38;13.05;;;;;;;-146.25;100.00;52641.94;2104835;28;34244;-63
2024/01/28 00:51:33;;;;;;;26.55;12.55;;;;;;;-146.25;100.00;52601.38;2104679;28;33850;-63
2024/01/28 00:52:35;;;;;;;32.03;12.75;;;;;;;-146.25;100.00;52631.78;2105589;28;20692;-63
2024/01/28 00:53:36;;;;;;;32.83;13.88;;;;;;;-146.25;100.00;52619.63;2105071;28;24692;-62
2024/01/28 00:54:38;;;;;;;32.90;14.07;;;;;;;-146.25;100.00;52629.75;2104102;28;37905;-63
2024/01/28 00:55:40;;;;;;;30.90;13.07;;;;;;;-146.25;100.00;52581.09;2105069;28;20926;-63
2024/01/28 00:56:42;;;;;;;25.27;11.73;;;;;;;-146.25;100.00;52607.47;2104513;28;34860;-59
2024/01/28 00:57:46;;;;;;;31.15;13.73;;;;;;;-146.25;100.00;52613.53;2096236;28;33264;-63
2024/01/28 00:58:48;;;;;;;30.52;13.00;;;;;;;-146.25;100.00;52615.56;2096023;28;33514;-63
2024/01/28 00:59:49;;;;;;;31.55;12.77;;;;;;;-146.25;100.00;52635.84;2104960;28;38067;-62
2024/01/28 01:00:54;;;;;;;30.63;12.65;;;;;;;-146.25;100.00;52631.78;2104524;28;31346;-63
2024/01/28 01:01:56;;;;;;;29.60;13.32;;;;;;;-146.25;100.00;52643.97;2104028;28;37047;-62
2024/01/28 01:02:58;;;;;;;30.83;13.73;;;;;;;-146.25;100.00;52607.47;2104517;28;36153;-62
2024/01/28 01:04:00;;;;;;;29.67;13.40;;;;;;;-146.25;100.00;52629.75;2098234;28;20040;-64
2024/01/28 01:05:02;;;;;;;29.85;13.52;;;;;;;-146.25;100.00;52613.53;2097590;28;35813;-63
2024/01/28 01:06:07;;;;;;;31.88;12.95;;;;;;;-146.25;100.00;52625.72;2106440;28;33721;-62
2024/01/28 01:07:09;;;;;;;36.38;14.15;;;;;;;-146.25;100.00;52615.56;2106549;28;31318;-63
2024/01/28 01:08:11;;;;;;;33.35;14.40;;;;;;;-146.25;100.00;52637.88;2105427;28;37805;-63
2024/01/28 01:09:13;;;;;;;35.38;14.70;;;;;;;-146.25;100.00;52670.31;2106617;28;20044;-65
2024/01/28 01:10:17;;;;;;;30.45;13.88;;;;;;;-146.25;100.00;52611.50;2107117;28;27364;-64
2024/01/28 01:11:19;;;;;;;33.20;13.93;;;;;;;-146.25;100.00;52664.22;2106704;28;32568;-63
2024/01/28 01:12:23;;;;;;;27.95;14.18;;;;;;;-146.25;100.00;52633.81;2107356;28;20140;-62
2024/01/28 01:13:25;;;;;;;28.80;13.57;;;;;;;-146.25;100.00;52648.00;2106103;28;37300;-65
2024/01/28 01:14:35;;;;;;;33.33;14.68;;;;;;;-146.25;100.00;52613.53;2105462;28;33915;-63
2024/01/28 01:15:37;;;;;;;25.83;10.80;;;;;;;-146.25;100.00;52627.75;2106193;28;20158;-65
2024/01/28 01:16:38;;;;;;;35.80;14.50;;;;;;;-146.25;100.00;52631.78;2105728;28;37462;-63
2024/01/28 01:17:44;;;;;;;31.77;14.48;;;;;;;-146.25;100.00;52627.75;2106153;28;20056;-63
2024/01/28 01:18:46;;;;;;;34.65;15.30;;;;;;;-146.25;100.00;52623.69;2106218;28;37065;-63
2024/01/28 01:19:48;;;;;;;39.47;15.48;;;;;;;-146.25;100.00;52589.22;2096372;28;30484;-64
2024/01/28 01:20:51;;;;;;;31.85;14.25;;;;;;;-146.25;100.00;52599.34;2096507;28;20041;-63
2024/01/28 01:21:53;;;;;;;31.95;15.10;;;;;;;-146.25;100.00;52607.47;2104276;28;36529;-62
2024/01/28 01:22:55;;;;;;;31.50;14.63;;;;;;;-146.25;100.00;52611.50;2104952;28;34057;-64
2024/01/28 01:23:57;;;;;;;37.47;15.40;;;;;;;-146.25;100.00;52641.94;2105146;28;20048;-62
2024/01/28 01:24:58;;;;;;;31.40;14.25;;;;;;;-146.25;100.00;52603.41;2104747;28;30978;-64
2024/01/28 01:26:00;;;;;;;39.28;15.38;;;;;;;-146.25;100.00;52615.56;2104861;28;33136;-64
2024/01/28 01:27:02;;;;;;;41.97;15.80;;;;;;;-146.25;100.00;52599.34;2104411;28;33830;-62
2024/01/28 01:28:06;;;;;;;36.22;15.50;;;;;;;-146.25;100.00;52662.22;2104861;28;34945;-62
2024/01/28 01:29:08;;;;;;;32.05;15.45;;;;;;;-146.25;100.00;52619.63;2104392;28;36049;-62
2024/01/28 01:30:11;;;;;;;30.45;14.40;;;;;;;-146.25;100.00;52631.78;2105441;28;20045;-63
2024/01/28 01:31:13;;;;;;;36.75;15.00;;;;;;;-146.25;100.00;52637.88;2104023;28;33862;-64
2024/01/28 01:32:16;;;;;;;38.33;14.98;;;;;;;-146.25;100.00;52643.97;2104722;28;32055;-62
2024/01/28 01:33:17;;;;;;;37.72;15.00;;;;;;;-146.25;100.00;52625.72;2104486;28;31676;-65
2024/01/28 01:34:24;;;;;;;34.08;15.40;;;;;;;-146.25;100.00;52635.84;2104784;28;33628;-64
2024/01/28 01:35:26;;;;;;;29.35;13.25;;;;;;;-146.25;100.00;52629.75;2105212;28;20356;-64
2024/01/28 01:36:28;;;;;;;30.90;14.38;;;;;;;-146.25;100.00;52660.19;2105624;28;20071;-63
2024/01/28 01:37:30;;;;;;;29.48;14.18;;;;;;;-146.25;100.00;52611.50;2105809;28;36064;-63
2024/01/28 01:38:31;;;;;;;30.98;14.15;;;;;;;-146.25;100.00;52619.63;2105561;28;32742;-64
2024/01/28 01:39:33;;;;;;;37.25;14.32;;;;;;;-146.25;100.00;52609.50;2105865;28;20041;-65
2024/01/28 01:40:35;;;;;;;37.35;15.75;;;;;;;-146.25;100.00;52623.69;2105315;28;35610;-63
2024/01/28 01:41:37;;;;;;;31.08;14.52;;;;;;;-146.25;100.00;52656.13;2103516;28;36350;-62
2024/01/28 01:42:39;;;;;;;33.35;14.38;;;;;;;-146.25;100.00;52621.66;2095958;28;20044;-64
2024/01/28 01:43:41;;;;;;;27.13;13.38;;;;;;;-146.25;100.00;52627.75;2095869;28;33979;-63
2024/01/28 01:44:43;;;;;;;35.95;16.33;;;;;;;-146.25;100.00;52619.63;2104238;28;33927;-63
2024/01/28 01:45:44;;;;;;;32.40;14.73;;;;;;;-146.25;100.00;52617.59;2105216;28;20044;-63
2024/01/28 01:46:46;;;;;;;32.30;14.32;;;;;;;-146.25;100.00;52656.13;2104894;28;35925;-63
2024/01/28 01:47:48;;;;;;;44.30;15.60;;;;;;;-146.25;100.00;52629.75;2104297;28;33466;-63
2024/01/28 01:48:52;;;;;;;36.15;15.38;;;;;;;-146.25;100.00;52645.97;2105366;28;20118;-63
2024/01/28 01:49:54;;;;;;;40.83;15.95;;;;;;;-146.25;100.00;52609.50;2104067;28;36832;-63
2024/01/28 01:50:59;;;;;;;34.08;15.07;;;;;;;-146.25;100.00;52641.94;2095526;28;31929;-63
2024/01/28 01:52:02;;;;;;;46.95;17.27;;;;;;;-146.25;100.00;52617.59;2096962;28;20052;-63
2024/01/28 01:53:05;;;;;;;34.42;15.82;;;;;;;-146.25;100.00;52619.63;2104257;28;34555;-63
2024/01/28 01:54:07;;;;;;;41.63;16.65;;;;;;;-146.25;100.00;52619.63;2087190;28;34008;-63
2024/01/28 01:55:09;;;;;;;35.80;16.17;;;;;;;-146.25;100.00;52633.81;2087861;28;33915;-63
2024/01/28 01:56:14;;;;;;;32.83;15.82;;;;;;;-146.25;100.00;52621.66;2096295;28;21065;-63
2024/01/28 01:57:16;;;;;;;31.33;15.63;;;;;;;-146.25;100.00;52595.28;2095509;28;33803;-63
2024/01/28 01:58:19;;;;;;;34.20;16.30;;;;;;;-146.25;100.00;52627.75;2087105;28;34424;-62
2024/01/28 01:59:24;;;;;;;38.05;16.98;;;;;;;-146.25;100.00;52615.56;2087453;28;36938;-63
2024/01/28 02:00:26;;;;;;;38.97;17.48;;;;;;;-146.25;100.00;52633.81;2088780;28;20029;-63
2024/01/28 02:01:29;;;;;;;33.75;16.35;;;;;;;-146.25;100.00;52662.22;2087618;28;29338;-63
2024/01/28 02:02:33;;;;;;;37.20;16.13;;;;;;;-146.25;100.00;52633.81;2087623;28;31271;-63
2024/01/28 02:03:35;;;;;;;38.03;16.33;;;;;;;-146.25;100.00;52645.97;2088056;28;30164;-64
2024/01/28 02:04:39;;;;;;;38.20;16.85;;;;;;;-146.25;100.00;52654.09;2095815;28;37114;-65
2024/01/28 02:05:42;;;;;;;37.75;16.45;;;;;;;-146.25;100.00;52619.63;2104343;28;31579;-63
2024/01/28 02:06:43;;;;;;;36.80;17.48;;;;;;;-146.25;100.00;52623.69;2104213;28;34106;-65
2024/01/28 02:07:45;;;;;;;27.33;15.60;;;;;;;-146.25;100.00;52629.75;2104616;28;34993;-64
2024/01/28 02:08:47;;;;;;;39.15;16.50;;;;;;;-146.25;100.00;52617.59;2104639;28;33988;-63
2024/01/28 02:09:49;;;;;;;35.97;16.60;;;;;;;-146.25;100.00;52619.63;2104100;28;36311;-65
2024/01/28 02:10:51;;;;;;;39.22;16.83;;;;;;;-146.25;100.00;52648.00;2105124;28;20041;-63
2024/01/28 02:11:53;;;;;;;42.40;16.77;;;;;;;-146.25;100.00;52615.56;2104488;28;28250;-64
2024/01/28 02:12:55;;;;;;;43.42;17.13;;;;;;;-146.25;100.00;52603.41;2104363;28;32951;-62
2024/01/28 02:13:56;;;;;;;42.22;17.60;;;;;;;-146.25;100.00;52605.44;2105079;28;20745;-65
2024/01/28 02:15:06;;;;;;;46.13;17.95;;;;;;;-146.25;100.00;52617.59;2103959;28;35727;-64
2024/01/28 02:16:08;;;;;;;37.15;17.67;;;;;;;-146.25;100.00;52656.13;2095128;28;31030;-65
2024/01/28 02:17:10;;;;;;;34.38;17.20;;;;;;;-146.25;100.00;52591.25;2096695;28;20102;-62
2024/01/28 02:18:12;;;;;;;41.00;17.40;;;;;;;-146.25;100.00;52607.47;2104312;28;34059;-64
2024/01/28 02:19:15;;;;;;;40.17;16.50;;;;;;;-146.25;100.00;52603.41;2104835;28;20867;-64
2024/01/28 02:20:19;;;;;;;41.45;17.33;;;;;;;-146.25;100.00;52656.13;2095193;28;37216;-64
2024/01/28 02:21:23;;;;;;;38.13;15.88;;;;;;;-146.25;100.00;52627.75;2096238;28;30456;-64
2024/01/28 02:22:25;;;;;;;36.40;16.13;;;;;;;-146.25;100.00;52609.50;2105199;28;20043;-64
2024/01/28 02:23:27;;;;;;;38.42;16.65;;;;;;;-146.25;100.00;52605.44;2104543;28;34633;-65
2024/01/28 02:24:28;;;;;;;30.13;15.85;;;;;;;-146.25;100.00;52605.44;2104089;28;37482;-62
2024/01/28 02:25:33;;;;;;;37.08;15.93;;;;;;;-146.25;100.00;52615.56;2104832;28;20307;-62
2024/01/28 02:26:34;;;;;;;32.55;16.60;;;;;;;-146.25;100.00;52611.50;2104641;28;30724;-64
2024/01/28 02:27:40;;;;;;;33.88;16.25;;;;;;;-146.25;100.00;52589.22;2104263;28;34053;-64
2024/01/28 02:28:42;;;;;;;32.88;15.20;;;;;;;-146.25;100.00;52652.06;2106125;28;20040;-63
2024/01/28 02:29:44;;;;;;;37.00;16.77;;;;;;;-146.25;100.00;52603.41;2112636;28;35647;-65
2024/01/28 02:30:48;;;;;;;31.98;15.80;;;;;;;-146.25;100.00;52605.44;2103480;28;34271;-64
2024/01/28 02:31:50;;;;;;;34.72;16.17;;;;;;;-146.25;100.00;52609.50;2104770;28;32650;-64
2024/01/28 02:32:52;;;;;;;32.83;15.40;;;;;;;-146.25;100.00;52650.03;2112739;28;37339;-63
2024/01/28 02:33:58;;;;;;;40.72;16.00;;;;;;;-146.25;100.00;52597.31;2112240;28;35954;-63
2024/01/28 02:35:00;;;;;;;44.75;17.27;;;;;;;-146.25;100.00;52619.63;2113099;28;33075;-62
2024/01/28 02:36:02;;;;;;;38.85;16.38;;;;;;;-146.25;100.00;52645.97;2112492;28;33899;-62
2024/01/28 02:37:04;;;;;;;39.95;16.60;;;;;;;-146.25;100.00;52625.72;2113083;28;20040;-63
2024/01/28 02:38:06;;;;;;;40.92;17.00;;;;;;;-146.25;100.00;52583.13;2112688;28;36380;-62
2024/01/28 02:39:08;;;;;;;49.38;17.83;;;;;;;-146.25;100.00;52639.91;2112659;28;36041;-64
2024/01/28 02:40:11;;;;;;;42.90;17.67;;;;;;;-146.25;100.00;52605.44;2112566;28;30540;-63
2024/01/28 02:41:13;;;;;;;41.00;17.42;;;;;;;-146.25;100.00;52641.94;2104340;28;35083;-62
2024/01/28 02:42:14;;;;;;;32.13;17.08;;;;;;;-146.25;100.00;52603.41;2104976;28;20078;-64
2024/01/28 02:43:16;;;;;;;34.97;17.75;;;;;;;-146.25;100.00;52617.59;2104233;28;38269;-62
2024/01/28 02:44:20;;;;;;;42.97;18.70;;;;;;;-146.25;100.00;52648.00;2104008;28;31754;-63
2024/01/28 02:45:24;;;;;;;35.78;16.95;;;;;;;-146.25;100.00;52670.31;2104171;28;31476;-63
2024/01/28 02:46:26;;;;;;;49.15;16.92;;;;;;;-146.25;100.00;52621.66;2103802;28;36062;-63
2024/01/28 02:47:27;;;;;;;45.05;18.20;;;;;;;-146.25;100.00;52627.75;2104240;28;34947;-63
2024/01/28 02:48:29;;;;;;;42.60;17.33;;;;;;;-146.25;100.00;52601.38;2104453;28;33433;-63
2024/01/28 02:49:34;;;;;;;39.40;17.73;;;;;;;-146.25;100.00;52613.53;2103378;28;31796;-63
2024/01/28 02:50:38;;;;;;;41.72;16.65;;;;;;;-146.25;100.00;52609.50;2104078;28;20037;-63
2024/01/28 02:51:44;;;;;;;32.67;16.00;;;;;;;-146.25;100.00;52633.81;2104300;28;36637;-63
2024/01/28 02:52:48;;;;;;;35.10;16.02;;;;;;;-146.25;100.00;52607.47;2104486;28;34770;-62
2024/01/28 02:53:49;;;;;;;33.20;16.52;;;;;;;-146.25;100.00;52603.41;2104695;28;35438;-63
2024/01/28 02:54:51;;;;;;;34.53;16.67;;;;;;;-146.25;100.00;52621.66;2104152;28;31601;-63
2024/01/28 02:55:59;;;;;;;37.90;17.27;;;;;;;-146.25;100.00;52627.75;2104818;28;20159;-63
2024/01/28 02:57:01;;;;;;;38.38;15.48;;;;;;;-146.25;100.00;52623.69;2104219;28;36276;-64
2024/01/28 02:58:03;;;;;;;33.28;15.82;;;;;;;-146.25;100.00;52668.28;2104105;28;37619;-63
2024/01/28 02:59:05;;;;;;;38.85;16.58;;;;;;;-146.25;100.00;52625.72;2104977;28;20033;-64
2024/01/28 03:00:07;;;;;;;38.22;16.10;;;;;;;-146.25;100.00;52660.19;2103948;28;37281;-62
2024/01/28 03:01:09;;;;;;;34.88;16.52;;;;;;;-146.25;100.00;52623.69;2095782;28;34995;-63
2024/01/28 03:02:11;;;;;;;34.70;15.63;;;;;;;-146.25;100.00;52641.94;2096525;28;34075;-64
2024/01/28 03:03:15;;;;;;;35.58;15.27;;;;;;;-146.25;100.00;52595.28;2086722;28;33081;-64
2024/01/28 03:04:16;;;;;;;25.90;14.25;;;;;;;-146.25;100.00;52668.28;2088201;28;20164;-62
2024/01/28 03:05:18;;;;;;;30.50;15.20;;;;;;;-146.25;100.00;52609.50;2095404;28;29068;-63
2024/01/28 03:06:20;;;;;;;34.25;15.13;;;;;;;-146.25;100.00;52615.56;2096097;28;34288;-63
2024/01/28 03:07:25;;;;;;;38.65;16.02;;;;;;;-146.25;100.00;52599.34;2095981;28;20094;-63
2024/01/28 03:08:26;;;;;;;35.38;15.80;;;;;;;-146.25;100.00;52627.75;2095422;28;37560;-62
2024/01/28 03:09:29;;;;;;;37.15;16.40;;;;;;;-146.25;100.00;52676.41;2095858;28;20032;-63
2024/01/28 03:10:31;;;;;;;32.40;16.33;;;;;;;-146.25;100.00;52635.84;2097581;28;34664;-63
2024/01/28 03:11:34;;;;;;;44.08;17.75;;;;;;;-146.25;100.00;52615.56;2103456;28;34962;-62
2024/01/28 03:12:36;;;;;;;36.28;16.85;;;;;;;-146.25;100.00;52615.56;2104920;28;20461;-62
2024/01/28 03:13:40;;;;;;;36.25;17.13;;;;;;;-146.25;100.00;52641.94;2103576;28;37679;-62
2024/01/28 03:14:42;;;;;;;33.08;17.90;;;;;;;-146.25;100.00;52635.84;2104093;28;29555;-63
2024/01/28 03:15:45;;;;;;;35.22;16.45;;;;;;;-146.25;100.00;52615.56;2104046;28;31852;-63
2024/01/28 03:16:49;;;;;;;33.83;17.02;;;;;;;-146.25;100.00;52615.56;2104472;28;20811;-63
2024/01/28 03:17:51;;;;;;;34.60;15.27;;;;;;;-146.25;100.00;52619.63;2103981;28;32895;-62
2024/01/28 03:18:52;;;;;;;38.22;17.13;;;;;;;-146.25;100.00;52645.97;2104076;28;31396;-62
2024/01/28 03:19:54;;;;;;;36.10;15.40;;;;;;;-146.25;100.00;52660.19;2094521;28;35575;-61
2024/01/28 03:20:56;;;;;;;24.30;14.60;;;;;;;-146.25;100.00;52631.78;2095424;28;34266;-62
2024/01/28 03:21:58;;;;;;;26.63;14.52;;;;;;;-146.25;100.00;52621.66;2103770;28;28973;-62
2024/01/28 03:23:00;;;;;;;28.67;15.10;;;;;;;-146.25;100.00;52615.56;2105004;28;20955;-62
2024/01/28 03:24:02;;;;;;;32.53;16.25;;;;;;;-146.25;100.00;52654.09;2103873;28;30643;-63
2024/01/28 03:25:05;;;;;;;33.05;16.35;;;;;;;-146.25;100.00;52611.50;2104556;28;34148;-63
2024/01/28 03:26:10;;;;;;;38.85;16.20;;;;;;;-146.25;100.00;52656.13;2105345;28;34180;-63
2024/01/28 03:27:11;;;;;;;37.33;16.42;;;;;;;-146.25;100.00;52603.41;2105325;28;36008;-63
2024/01/28 03:28:16;;;;;;;37.50;16.40;;;;;;;-146.25;100.00;52619.63;2105070;28;33851;-63
2024/01/28 03:29:18;;;;;;;30.85;15.77;;;;;;;-146.25;100.00;52617.59;2105839;28;20163;-62
2024/01/28 03:30:20;;;;;;;33.95;16.15;;;;;;;-146.25;100.00;52635.84;2105511;28;33633;-64
2024/01/28 03:31:22;;;;;;;32.97;16.70;;;;;;;-146.25;100.00;52656.13;2105321;28;34535;-63
2024/01/28 03:32:24;;;;;;;31.83;15.93;;;;;;;-146.25;100.00;52615.56;2104914;28;34755;-64
2024/01/28 03:33:25;;;;;;;39.28;18.20;;;;;;;-146.25;100.00;52656.13;2105789;28;33787;-65
2024/01/28 03:34:27;;;;;;;40.92;17.23;;;;;;;-146.25;100.00;52635.84;2105160;28;34924;-65
2024/01/28 03:35:29;;;;;;;33.42;17.80;;;;;;;-146.25;100.00;52625.72;2105392;28;34905;-63
2024/01/28 03:36:31;;;;;;;38.85;17.75;;;;;;;-146.25;100.00;52643.97;2105762;28;20106;-63
2024/01/28 03:37:33;;;;;;;35.95;17.95;;;;;;;-146.25;100.00;52579.06;2105167;28;38656;-63
2024/01/28 03:38:35;;;;;;;38.08;18.35;;;;;;;-146.25;100.00;52641.94;2105961;28;31288;-65
2024/01/28 03:39:37;;;;;;;33.53;17.38;;;;;;;-146.25;100.00;52627.75;2104888;28;32752;-63
2024/01/28 03:40:38;;;;;;;41.83;17.38;;;;;;;-146.25;100.00;52654.09;2105068;28;34548;-66
2024/01/28 03:41:41;;;;;;;42.05;19.13;;;;;;;-146.25;100.00;52629.75;2106210;28;20098;-64
2024/01/28 03:42:43;;;;;;;39.25;17.95;;;;;;;-146.25;100.00;52621.66;2105205;28;34755;-63
2024/01/28 03:43:48;;;;;;;36.05;18.73;;;;;;;-146.25;100.00;52643.97;2106090;28;20079;-65
2024/01/28 03:44:50;;;;;;;44.83;19.00;;;;;;;-146.25;100.00;52639.91;2105144;28;35205;-65
2024/01/28 03:45:51;;;;;;;37.60;18.02;;;;;;;-146.25;100.00;52635.84;2105374;28;38390;-64
2024/01/28 03:46:55;;;;;;;34.60;17.98;;;;;;;-146.25;100.00;52652.06;2104840;28;32990;-65
2024/01/28 03:47:56;;;;;;;36.53;18.98;;;;;;;-146.25;100.00;52633.81;2096307;28;35783;-63
2024/01/28 03:49:00;;;;;;;39.35;19.20;;;;;;;-146.25;100.00;52635.84;2097097;28;20041;-63
2024/01/28 03:50:03;;;;;;;38.95;18.83;;;;;;;-146.25;100.00;52623.69;2105201;28;34636;-64
2024/01/28 03:51:06;;;;;;;39.83;19.50;;;;;;;-146.25;100.00;52615.56;2105364;28;35470;-64
2024/01/28 03:52:08;;;;;;;31.40;18.15;;;;;;;-146.25;100.00;52607.47;2105830;28;20044;-64
2024/01/28 03:53:09;;;;;;;38.58;18.50;;;;;;;-146.25;100.00;52656.13;2096210;28;35806;-65
2024/01/28 03:54:11;;;;;;;41.10;18.85;;;;;;;-146.25;100.00;52643.97;2096915;28;20149;-64
2024/01/28 03:55:14;;;;;;;37.22;17.42;;;;;;;-146.25;100.00;52613.53;2104657;28;35584;-65
2024/01/28 03:56:18;;;;;;;45.10;19.27;;;;;;;-146.25;100.00;52633.81;2105268;28;34678;-64
2024/01/28 03:57:20;;;;;;;40.80;17.60;;;;;;;-146.25;100.00;52648.00;2104671;28;32702;-64
2024/01/28 03:58:24;;;;;;;37.97;19.00;;;;;;;-146.25;100.00;52635.84;2105361;28;33642;-64
2024/01/28 03:59:28;;;;;;;34.97;19.17;;;;;;;-146.25;100.00;52652.06;2105878;28;20037;-64
2024/01/28 04:00:31;;;;;;;39.67;19.30;;;;;;;-146.25;100.00;52623.69;2106561;28;20041;-64
2024/01/28 04:01:36;;;;;;;40.03;18.92;;;;;;;-146.25;100.00;52621.66;2104554;28;35074;-64
2024/01/28 04:02:39;;;;;;;38.72;18.92;;;;;;;-146.25;100.00;52648.00;2096248;28;31079;-64
2024/01/28 04:03:41;;;;;;;38.78;19.67;;;;;;;-146.25;100.00;52666.25;2097278;28;22666;-64
2024/01/28 04:04:43;;;;;;;38.08;19.83;;;;;;;-146.25;100.00;52629.75;2105091;28;35166;-64
2024/01/28 04:05:45;;;;;;;41.85;20.00;;;;;;;-146.25;100.00;52643.97;2105052;28;32141;-64
2024/01/28 04:06:47;;;;;;;42.30;20.05;;;;;;;-146.25;100.00;52593.25;2105258;28;35152;-65
2024/01/28 04:07:50;;;;;;;41.88;20.25;;;;;;;-146.25;100.00;52637.88;2105581;28;21802;-63
2024/01/28 04:08:55;;;;;;;41.80;19.17;;;;;;;-146.25;100.00;52623.69;2105284;28;34383;-65
2024/01/28 04:09:57;;;;;;;36.80;19.35;;;;;;;-146.25;100.00;52637.88;2096170;28;32663;-65
2024/01/28 04:10:59;;;;;;;36.38;19.20;;;;;;;-146.25;100.00;52643.97;2096984;28;20076;-63
2024/01/28 04:12:01;;;;;;;43.50;20.08;;;;;;;-146.25;100.00;52611.50;2105275;28;32221;-63
2024/01/28 04:13:05;;;;;;;46.70;20.88;;;;;;;-146.25;100.00;52589.22;2105646;28;23233;-63
2024/01/28 04:14:07;;;;;;;32.75;18.27;;;;;;;-146.25;100.00;52641.94;2105529;28;20890;-64
2024/01/28 04:15:09;;;;;;;36.22;20.17;;;;;;;-146.25;100.00;52637.88;2105105;28;30738;-65
2024/01/28 04:16:11;;;;;;;43.15;20.35;;;;;;;-146.25;100.00;52639.91;2105098;28;31266;-65
2024/01/28 04:17:13;;;;;;;26.67;17.45;;;;;;;-146.25;100.00;52635.84;2106675;28;20048;-64
2024/01/28 04:18:15;;;;;;;37.58;18.80;;;;;;;-146.25;100.00;52583.13;2105697;28;37317;-65
2024/01/28 04:19:16;;;;;;;40.00;19.52;;;;;;;-146.25;100.00;52611.50;2096849;28;26533;-65
2024/01/28 04:20:18;;;;;;;35.15;17.60;;;;;;;-146.25;100.00;52645.97;2097027;28;20889;-64
2024/01/28 04:21:23;;;;;;;38.55;17.45;;;;;;;-146.25;100.00;52635.84;2106827;28;20048;-62
2024/01/28 04:22:26;;;;;;;37.55;18.60;;;;;;;-146.25;100.00;52601.38;2106716;28;34979;-64
2024/01/28 04:23:27;;;;;;;44.00;18.88;;;;;;;-146.25;100.00;52629.75;2106187;28;37144;-65
2024/01/28 04:24:29;;;;;;;34.88;16.90;;;;;;;-146.25;100.00;52607.47;2105739;28;31396;-62
2024/01/28 04:25:31;;;;;;;41.63;18.83;;;;;;;-146.25;100.00;52643.97;2105790;28;34020;-64
2024/01/28 04:26:33;;;;;;;35.40;19.23;;;;;;;-146.25;100.00;52603.41;2105683;28;34986;-64
2024/01/28 04:27:35;;;;;;;40.05;19.85;;;;;;;-146.25;100.00;52631.78;2105621;28;34678;-64
2024/01/28 04:28:36;;;;;;;32.80;18.25;;;;;;;-146.25;100.00;52652.06;2105729;28;35493;-65
2024/01/28 04:29:41;;;;;;;39.47;19.40;;;;;;;-146.25;100.00;52660.19;2105610;28;34873;-65
2024/01/28 04:30:43;;;;;;;36.05;18.75;;;;;;;-146.25;100.00;52603.41;2105082;28;32996;-64
2024/01/28 04:31:44;;;;;;;39.25;19.50;;;;;;;-146.25;100.00;52635.84;2105890;28;20045;-65
2024/01/28 04:32:46;;;;;;;32.20;17.90;;;;;;;-146.25;100.00;52623.69;2105106;28;36147;-64
2024/01/28 04:33:48;;;;;;;38.25;17.88;;;;;;;-146.25;100.00;52631.78;2105775;28;20037;-63
2024/01/28 04:34:52;;;;;;;36.08;19.10;;;;;;;-146.25;100.00;52629.75;2105134;28;33833;-63
2024/01/28 04:35:54;;;;;;;40.72;19.88;;;;;;;-146.25;100.00;52599.34;2104573;28;32800;-64
2024/01/28 04:36:56;;;;;;;43.38;19.58;;;;;;;-146.25;100.00;52635.84;2105050;28;33286;-63
2024/01/28 04:37:58;;;;;;;43.97;20.23;;;;;;;-146.25;100.00;52615.56;2104915;28;36126;-64